Time;durP1;ratioP1;P1;durP2;ratioP2;P2;SDS_P1;SDS_P2;PMS_P1;PMS_P2;Temp;Humidity;BMP_temperature;BMP_pressure;BME280_temperature;BME280_humidity;BME280_pressure;Samples;Min_cycle;Max_cycle;Signal;HPM_P1;HPM_P2
2024/01/03 00:00:08;;;;;;;;;;;;;;;7.36;100.00;98334.25;7399067;19;20097;-69
2024/01/03 00:02:43;;;;;;;2.53;1.15;;;;;;;7.36;100.00;98329.88;7397960;19;19943;-69
2024/01/03 00:05:15;;;;;;;1.20;1.10;;;;;;;7.36;100.00;98331.66;7398481;19;20018;-70
2024/01/03 00:07:44;;;;;;;2.38;1.65;;;;;;;7.37;100.00;98330.69;7398629;19;20413;-69
2024/01/03 00:10:40;;;;;;;1.40;1.20;;;;;;;7.37;100.00;98331.56;7398199;19;20086;-70
2024/01/03 00:13:47;;;;;;;1.67;1.30;;;;;;;7.36;100.00;98335.09;7397580;19;20014;-69
2024/01/03 00:16:22;;;;;;;1.65;0.98;;;;;;;7.36;100.00;98329.88;7396954;19;20499;-70
2024/01/03 00:18:54;;;;;;;1.30;1.20;;;;;;;7.37;100.00;98333.31;7395564;19;20494;-70
2024/01/03 00:21:26;;;;;;;5.60;3.22;;;;;;;7.36;100.00;98336.84;7396679;19;20041;-70
2024/01/03 00:23:58;;;;;;;7.68;4.22;;;;;;;7.36;100.00;98336.84;7396040;19;20038;-70
2024/01/03 00:26:27;;;;;;;37.85;14.68;;;;;;;7.36;100.00;98321.22;7397528;19;20082;-70
2024/01/03 00:28:56;;;;;;;9.80;4.32;;;;;;;7.34;100.00;98329.94;7397382;19;20031;-69
2024/01/03 00:31:38;;;;;;;4.82;2.85;;;;;;;7.33;100.00;98323.03;7395622;19;20078;-70
2024/01/03 00:34:16;;;;;;;5.85;4.25;;;;;;;7.34;100.00;98318.66;7395556;19;20488;-70
2024/01/03 00:36:49;;;;;;;3.35;2.00;;;;;;;7.34;100.00;98327.34;7397512;19;20086;-70
2024/01/03 00:39:18;;;;;;;1.40;1.30;;;;;;;7.34;100.00;98321.25;7397183;19;20433;-70
2024/01/03 00:41:46;;;;;;;2.10;1.25;;;;;;;7.33;100.00;98323.03;7395117;19;20025;-71
2024/01/03 00:44:15;;;;;;;1.70;1.05;;;;;;;7.36;100.00;98316.00;7395582;19;20098;-70
2024/01/03 00:46:43;;;;;;;1.42;1.23;;;;;;;7.34;100.00;98316.91;7396754;19;20083;-70
2024/01/03 00:49:12;;;;;;;1.35;0.95;;;;;;;7.36;100.00;98323.81;7396265;19;20087;-69
2024/01/03 00:51:41;;;;;;;1.60;1.00;;;;;;;7.34;100.00;98329.09;7396421;19;20077;-70
2024/01/03 00:54:12;;;;;;;1.58;0.82;;;;;;;7.32;100.00;98325.72;7395064;19;20546;-70
2024/01/03 00:56:41;;;;;;;1.00;0.90;;;;;;;7.31;100.00;98329.25;7395236;19;20027;-70
2024/01/03 00:59:10;;;;;;;1.65;0.90;;;;;;;7.29;100.00;98331.06;7396444;19;20078;-69
2024/01/03 01:01:38;;;;;;;1.13;0.80;;;;;;;7.27;100.00;98341.56;7395255;19;20082;-70
2024/01/03 01:04:07;;;;;;;1.17;0.80;;;;;;;7.25;100.00;98338.19;7395116;19;20019;-71
2024/01/03 01:06:36;;;;;;;1.40;0.77;;;;;;;7.23;100.00;98334.81;7396226;19;20074;-69
2024/01/03 01:09:05;;;;;;;1.17;0.75;;;;;;;7.23;100.00;98345.25;7395826;19;20430;-70
2024/01/03 01:11:36;;;;;;;2.00;0.77;;;;;;;7.21;100.00;98341.84;7396065;19;20149;-69
2024/01/03 01:14:04;;;;;;;1.50;0.73;;;;;;;7.22;100.00;98350.53;7393894;19;20080;-69
2024/01/03 01:16:33;;;;;;;1.60;0.77;;;;;;;7.20;100.00;98353.19;7393718;19;20011;-70
2024/01/03 01:19:01;;;;;;;1.08;0.60;;;;;;;7.20;100.00;98353.19;7395389;19;20010;-69
2024/01/03 01:21:30;;;;;;;0.68;0.60;;;;;;;7.20;100.00;98360.19;7393633;19;20546;-70
2024/01/03 01:23:58;;;;;;;1.33;1.00;;;;;;;7.18;100.00;98360.28;7394233;19;20027;-69
2024/01/03 01:26:26;;;;;;;1.45;0.70;;;;;;;7.19;100.00;98356.75;7395650;19;20014;-69
2024/01/03 01:28:57;;;;;;;1.13;0.70;;;;;;;7.18;100.00;98357.66;7395554;19;20086;-70
2024/01/03 01:31:26;;;;;;;1.33;0.70;;;;;;;7.20;100.00;98355.81;7395986;19;20094;-68
2024/01/03 01:33:52;;;;;;;1.10;0.93;;;;;;;7.22;100.00;98361.81;7394322;19;20036;-68
2024/01/03 01:36:20;;;;;;;1.10;0.70;;;;;;;7.24;100.00;98360.00;7394890;19;20423;-69
2024/01/03 01:38:48;;;;;;;0.70;0.70;;;;;;;7.24;100.00;98357.38;7395211;19;20018;-68
2024/01/03 01:41:18;;;;;;;3.08;0.80;;;;;;;7.28;100.00;98364.13;7394029;19;20082;-69
2024/01/03 01:43:46;;;;;;;0.50;0.50;;;;;;;7.29;100.00;98373.66;7393721;19;20359;-69
2024/01/03 01:46:18;;;;;;;0.50;0.50;;;;;;;7.32;100.00;98364.84;7394852;19;20594;-69
2024/01/03 01:48:49;;;;;;;1.23;1.13;;;;;;;7.34;100.00;98371.69;7394687;19;20542;-69
2024/01/03 01:51:19;;;;;;;3.58;0.70;;;;;;;7.38;100.00;98371.53;7395062;19;20034;-70
2024/01/03 01:53:47;;;;;;;1.80;0.65;;;;;;;7.41;100.00;98374.00;7393853;19;20070;-70
2024/01/03 01:56:16;;;;;;;0.60;0.60;;;;;;;7.41;100.00;98377.44;7394793;19;20083;-69
2024/01/03 01:58:46;;;;;;;1.27;0.60;;;;;;;7.43;100.00;98377.38;7394787;19;20014;-69
2024/01/03 02:01:18;;;;;;;2.35;0.80;;;;;;;7.44;100.00;98371.25;7393199;19;20078;-69
2024/01/03 02:03:46;;;;;;;1.40;1.10;;;;;;;7.46;100.00;98385.06;7393812;19;20014;-69
2024/01/03 02:06:15;;;;;;;1.20;0.70;;;;;;;7.45;100.00;98391.19;7395632;19;20071;-69
2024/01/03 02:08:44;;;;;;;1.40;0.60;;;;;;;7.42;100.00;98386.09;7401656;19;20010;-72
2024/01/03 02:11:12;;;;;;;1.33;0.98;;;;;;;7.42;100.00;98373.94;7402036;19;20018;-67
2024/01/03 02:13:41;;;;;;;0.85;0.60;;;;;;;7.42;100.00;98383.50;7400850;19;20015;-69
2024/01/03 02:16:09;;;;;;;0.65;0.43;;;;;;;7.40;100.00;98385.34;7400791;19;20541;-70
2024/01/03 02:18:42;;;;;;;0.70;0.60;;;;;;;7.39;100.00;98387.09;7402241;19;20032;-69
2024/01/03 02:21:15;;;;;;;0.93;0.75;;;;;;;7.38;100.00;98387.19;7400666;19;20077;-68
2024/01/03 02:23:44;;;;;;;2.03;0.93;;;;;;;7.38;100.00;98382.81;7399855;19;20011;-69
2024/01/03 02:26:12;;;;;;;3.47;2.28;;;;;;;7.40;100.00;98382.75;7398658;19;20090;-69
2024/01/03 02:28:42;;;;;;;3.80;2.42;;;;;;;7.40;100.00;98380.13;7401002;19;20488;-69
2024/01/03 02:31:11;;;;;;;4.00;2.35;;;;;;;7.40;100.00;98382.75;7400907;19;20395;-69
2024/01/03 02:33:39;;;;;;;5.00;2.10;;;;;;;7.40;100.00;98373.16;7399957;19;20074;-69
2024/01/03 02:36:09;;;;;;;7.45;4.05;;;;;;;7.42;100.00;98383.50;7398141;19;20010;-69
2024/01/03 02:38:40;;;;;;;8.30;3.75;;;;;;;7.42;100.00;98378.28;7398458;19;20078;-69
2024/01/03 02:41:08;;;;;;;5.45;2.80;;;;;;;7.43;100.00;98379.97;7399456;19;20513;-69
2024/01/03 02:43:37;;;;;;;12.80;6.10;;;;;;;7.43;100.00;98379.97;7398212;19;20078;-69
2024/01/03 02:46:05;;;;;;;7.75;2.83;;;;;;;7.43;100.00;98375.63;7398264;19;20086;-69
2024/01/03 02:48:34;;;;;;;2.55;1.33;;;;;;;7.46;100.00;98385.06;7400347;19;20503;-69
2024/01/03 02:51:02;;;;;;;2.15;1.30;;;;;;;7.47;100.00;98381.56;7400633;19;20022;-70
2024/01/03 02:53:37;;;;;;;6.30;2.55;;;;;;;7.49;100.00;98390.13;7399445;19;20022;-67
2024/01/03 02:56:09;;;;;;;3.65;1.88;;;;;;;7.49;100.00;98377.09;7400617;19;20014;-68
2024/01/03 02:58:37;;;;;;;4.90;2.70;;;;;;;7.50;100.00;98368.34;7400834;19;20085;-68
2024/01/03 03:01:07;;;;;;;1.98;0.90;;;;;;;7.52;100.00;98369.13;7399320;19;20029;-68
2024/01/03 03:03:36;;;;;;;1.83;1.25;;;;;;;7.52;100.00;98360.44;7399078;19;20038;-68
2024/01/03 03:06:05;;;;;;;2.10;1.23;;;;;;;7.50;100.00;98361.34;7398961;19;20018;-69
2024/01/03 03:08:33;;;;;;;2.80;1.33;;;;;;;7.50;100.00;98368.34;7401633;19;20010;-68
2024/01/03 03:11:02;;;;;;;1.33;0.80;;;;;;;7.47;100.00;98378.94;7399207;19;20003;-68
2024/01/03 03:13:33;;;;;;;3.03;0.70;;;;;;;7.46;100.00;98379.84;7397295;19;20007;-68
2024/01/03 03:16:02;;;;;;;0.98;0.60;;;;;;;7.45;100.00;98371.16;7398780;19;20066;-68
2024/01/03 03:18:30;;;;;;;1.02;0.60;;;;;;;7.44;100.00;98371.25;7399335;19;20034;-68
2024/01/03 03:21:00;;;;;;;0.57;0.40;;;;;;;7.42;100.00;98380.88;7397505;19;20082;-68
2024/01/03 03:23:28;;;;;;;1.80;0.60;;;;;;;7.41;100.00;98376.63;7398821;19;20078;-68
2024/01/03 03:25:57;;;;;;;0.70;0.40;;;;;;;7.39;100.00;98379.28;7399589;19;20035;-68
2024/01/03 03:28:25;;;;;;;0.95;0.63;;;;;;;7.39;100.00;98373.22;7399505;19;20094;-68
2024/01/03 03:30:56;;;;;;;1.15;0.52;;;;;;;7.38;100.00;98371.53;7399077;19;20070;-68
2024/01/03 03:33:24;;;;;;;1.25;0.55;;;;;;;7.37;100.00;98375.03;7397949;19;20384;-68
2024/01/03 03:35:53;;;;;;;0.93;0.50;;;;;;;7.35;100.00;98375.13;7396837;19;20018;-68
2024/01/03 03:38:21;;;;;;;0.80;0.50;;;;;;;7.34;100.00;98371.69;7398657;19;20502;-68
2024/01/03 03:40:50;;;;;;;0.45;0.45;;;;;;;7.33;100.00;98366.53;7398500;19;20010;-68
2024/01/03 03:43:18;;;;;;;1.13;0.40;;;;;;;7.32;100.00;98367.47;7398237;19;20083;-68
2024/01/03 03:45:47;;;;;;;0.95;0.60;;;;;;;7.30;100.00;98369.28;7396326;19;20414;-68
2024/01/03 03:48:18;;;;;;;0.73;0.38;;;;;;;7.26;100.00;98376.41;7396594;19;20089;-68
2024/01/03 03:50:46;;;;;;;0.85;0.50;;;;;;;7.27;100.00;98382.47;7398460;19;20502;-68
2024/01/03 03:53:14;;;;;;;0.68;0.30;;;;;;;7.26;100.00;98381.59;7397833;19;20078;-68
2024/01/03 03:55:44;;;;;;;1.10;0.50;;;;;;;7.24;100.00;98387.81;7398493;19;20066;-68
2024/01/03 03:58:13;;;;;;;1.00;0.40;;;;;;;7.24;100.00;98390.41;7398421;19;20030;-68
2024/01/03 04:00:41;;;;;;;1.38;0.50;;;;;;;7.23;100.00;98397.41;7395803;19;20026;-68
2024/01/03 04:03:10;;;;;;;3.90;0.60;;;;;;;7.24;100.00;98395.63;7397884;19;20090;-68
2024/01/03 04:05:41;;;;;;;2.05;0.50;;;;;;;7.22;100.00;98393.09;7398145;19;20022;-68
2024/01/03 04:08:09;;;;;;;1.95;0.50;;;;;;;7.23;100.00;98386.13;7397736;19;20027;-68
2024/01/03 04:10:38;;;;;;;1.05;0.57;;;;;;;7.24;100.00;98393.03;7397622;19;20577;-68
2024/01/03 04:13:06;;;;;;;0.60;0.45;;;;;;;7.23;100.00;98402.63;7397339;19;20039;-68
2024/01/03 04:15:35;;;;;;;0.63;0.40;;;;;;;7.23;100.00;98405.22;7395243;19;20083;-68
2024/01/03 04:18:05;;;;;;;1.13;0.60;;;;;;;7.22;100.00;98408.75;7395356;19;20554;-68
2024/01/03 04:20:34;;;;;;;2.83;0.50;;;;;;;7.22;100.00;98407.91;7397803;19;20015;-68
2024/01/03 04:23:05;;;;;;;1.67;0.50;;;;;;;7.22;100.00;98415.75;7395371;19;20423;-68
2024/01/03 04:25:34;;;;;;;2.05;0.47;;;;;;;7.22;100.00;98411.38;7397783;19;20032;-68
2024/01/03 04:28:02;;;;;;;0.77;0.47;;;;;;;7.22;100.00;98408.75;7397057;19;20503;-68
2024/01/03 04:30:30;;;;;;;1.88;0.65;;;;;;;7.22;100.00;98411.38;7397444;19;20018;-68
2024/01/03 04:32:59;;;;;;;5.50;1.70;;;;;;;7.21;100.00;98409.66;7395258;19;20085;-68
2024/01/03 04:35:27;;;;;;;3.20;0.70;;;;;;;7.22;100.00;98419.19;7394897;19;20027;-68
2024/01/03 04:38:01;;;;;;;2.78;0.60;;;;;;;7.22;100.00;98439.22;7396998;19;20411;-68
2024/01/03 04:40:32;;;;;;;2.03;0.60;;;;;;;7.21;100.00;98427.09;7394955;19;20014;-68
2024/01/03 04:43:01;;;;;;;1.52;0.60;;;;;;;7.22;100.00;98431.41;7395201;19;20019;-68
2024/01/03 04:45:29;;;;;;;2.97;0.82;;;;;;;7.22;100.00;98436.59;7396766;19;20014;-68
2024/01/03 04:47:58;;;;;;;1.40;0.60;;;;;;;7.22;100.00;98442.66;7394915;19;20006;-68
2024/01/03 04:50:26;;;;;;;2.63;0.43;;;;;;;7.22;100.00;98437.44;7396382;19;20514;-68
2024/01/03 04:55:33;;;;;;;2.35;0.60;;;;;;;7.24;100.00;98440.84;7395439;19;20013;-68
2024/01/03 04:58:01;;;;;;;3.08;0.90;;;;;;;7.25;100.00;98433.84;7396578;19;20066;-68
2024/01/03 05:00:30;;;;;;;1.08;0.95;;;;;;;7.27;100.00;98443.28;7394317;19;20074;-69
2024/01/03 05:02:59;;;;;;;2.13;0.80;;;;;;;7.26;100.00;98435.53;7394077;19;20070;-68
2024/01/03 05:05:27;;;;;;;1.70;0.68;;;;;;;7.28;100.00;98452.81;7395912;19;20078;-68
2024/01/03 05:07:56;;;;;;;2.13;0.68;;;;;;;7.29;100.00;98459.72;7394011;19;20082;-68
2024/01/03 05:10:25;;;;;;;3.67;0.80;;;;;;;7.30;100.00;98457.97;7395502;19;20390;-69
2024/01/03 05:12:56;;;;;;;2.72;0.70;;;;;;;7.32;100.00;98453.53;7395419;19;20011;-69
2024/01/03 05:15:24;;;;;;;3.33;1.08;;;;;;;7.33;100.00;98450.00;7394804;19;20069;-69
2024/01/03 05:17:53;;;;;;;2.17;0.70;;;;;;;7.34;100.00;98449.94;7394335;19;20102;-68
2024/01/03 05:20:21;;;;;;;2.83;0.90;;;;;;;7.37;100.00;98448.94;7395702;19;20077;-68
2024/01/03 05:22:50;;;;;;;2.72;0.57;;;;;;;7.37;100.00;98443.72;7394152;19;20086;-69
2024/01/03 05:25:18;;;;;;;2.92;0.50;;;;;;;7.39;100.00;98456.69;7395701;19;20035;-68
2024/01/03 05:27:47;;;;;;;2.28;0.73;;;;;;;7.42;100.00;98443.50;7395280;19;20014;-68
2024/01/03 05:30:18;;;;;;;2.53;0.60;;;;;;;7.43;100.00;98442.59;7395053;19;20073;-69
2024/01/03 05:32:47;;;;;;;2.35;0.50;;;;;;;7.48;100.00;98456.28;7394962;19;20038;-68
2024/01/03 05:35:21;;;;;;;3.95;0.93;;;;;;;7.48;100.00;98454.53;7394606;19;20478;-68
2024/01/03 05:37:50;;;;;;;3.90;0.63;;;;;;;7.48;100.00;98451.91;7394462;19;20496;-69
2024/01/03 05:40:18;;;;;;;3.65;0.60;;;;;;;7.51;100.00;98458.75;7395065;19;20031;-69
2024/01/03 05:42:47;;;;;;;1.30;0.70;;;;;;;7.52;100.00;98446.53;7392469;19;20018;-69
2024/01/03 05:45:18;;;;;;;2.30;1.00;;;;;;;7.52;100.00;98460.47;7393270;19;20032;-68
2024/01/03 05:47:46;;;;;;;3.17;0.85;;;;;;;7.54;100.00;98466.44;7394399;19;20494;-68
2024/01/03 05:50:15;;;;;;;2.53;0.88;;;;;;;7.56;100.00;98467.22;7393073;19;20083;-68
2024/01/03 05:52:43;;;;;;;1.85;0.70;;;;;;;7.59;100.00;98461.84;7392986;19;20010;-67
2024/01/03 05:55:12;;;;;;;2.03;0.55;;;;;;;7.60;100.00;98449.66;7394466;19;20090;-68
2024/01/03 05:57:40;;;;;;;1.77;0.57;;;;;;;7.62;100.00;98463.47;7394296;19;20074;-68
2024/01/03 06:00:10;;;;;;;2.53;0.70;;;;;;;7.65;100.00;98460.72;7394094;19;20024;-67
2024/01/03 06:02:48;;;;;;;1.10;0.50;;;;;;;7.65;100.00;98461.56;7392756;19;20070;-68
2024/01/03 06:05:18;;;;;;;3.05;0.73;;;;;;;7.69;100.00;98464.06;7394514;19;20031;-68
2024/01/03 06:07:47;;;;;;;2.45;0.70;;;;;;;7.70;100.00;98463.97;7392384;19;20015;-68
2024/01/03 06:10:15;;;;;;;1.40;0.50;;;;;;;7.72;100.00;98471.72;7392134;19;20011;-68
2024/01/03 06:12:44;;;;;;;2.58;0.60;;;;;;;7.73;100.00;98465.59;7393495;19;20418;-68
2024/01/03 06:15:12;;;;;;;2.45;0.60;;;;;;;7.76;100.00;98468.03;7393579;19;20011;-67
2024/01/03 06:17:41;;;;;;;2.60;0.82;;;;;;;7.76;100.00;98463.69;7392013;19;20018;-68
2024/01/03 06:20:13;;;;;;;1.90;0.65;;;;;;;7.77;100.00;98474.97;7392166;19;20039;-68
2024/01/03 06:22:41;;;;;;;1.67;0.63;;;;;;;7.78;100.00;98481.88;7392903;19;20079;-69
2024/01/03 06:25:10;;;;;;;3.85;1.35;;;;;;;7.78;100.00;98487.94;7391896;19;20010;-68
2024/01/03 06:27:38;;;;;;;3.63;0.68;;;;;;;7.80;100.00;98482.66;7393752;19;20078;-69
2024/01/03 06:30:08;;;;;;;3.33;0.70;;;;;;;7.81;100.00;98500.88;7393113;19;20070;-68
2024/01/03 06:32:37;;;;;;;4.63;0.82;;;;;;;7.83;100.00;98500.78;7394321;19;20083;-68
2024/01/03 06:35:06;;;;;;;4.25;0.70;;;;;;;7.85;100.00;98496.34;7393192;19;20074;-68
2024/01/03 06:37:37;;;;;;;4.13;0.65;;;;;;;7.88;100.00;98492.75;7393488;19;20069;-69
2024/01/03 06:40:06;;;;;;;2.88;0.50;;;;;;;7.93;100.00;98499.44;7393282;19;20074;-69
2024/01/03 06:42:35;;;;;;;2.30;0.50;;;;;;;7.95;100.00;98489.78;7391087;19;20033;-67
2024/01/03 06:45:04;;;;;;;4.22;0.70;;;;;;;8.01;100.00;98498.25;7392868;19;20383;-66
2024/01/03 06:47:33;;;;;;;6.07;0.60;;;;;;;8.02;100.00;98513.81;7393480;19;20006;-66
2024/01/03 06:50:01;;;;;;;6.57;0.60;;;;;;;8.03;100.00;98509.47;7393306;19;20014;-66
2024/01/03 06:52:30;;;;;;;4.63;1.00;;;;;;;8.04;100.00;98511.13;7392734;19;20078;-66
2024/01/03 06:55:02;;;;;;;2.13;0.80;;;;;;;8.03;100.00;98515.53;7396400;19;20014;-66
2024/01/03 06:57:30;;;;;;;2.03;0.57;;;;;;;8.05;100.00;98529.38;7398292;19;20007;-66
2024/01/03 06:59:59;;;;;;;3.30;0.70;;;;;;;8.04;100.00;98527.66;7399749;19;20506;-66
2024/01/03 07:02:27;;;;;;;2.95;1.10;;;;;;;8.06;100.00;98530.19;7398990;19;20027;-67
2024/01/03 07:04:56;;;;;;;1.42;0.50;;;;;;;8.06;100.00;98532.81;7396978;19;20549;-67
2024/01/03 07:07:31;;;;;;;1.67;0.77;;;;;;;8.05;100.00;98546.78;7400120;19;20083;-69
2024/01/03 07:10:02;;;;;;;3.22;0.77;;;;;;;8.07;100.00;98537.13;7400084;19;20510;-69
2024/01/03 07:12:30;;;;;;;2.40;0.68;;;;;;;8.07;100.00;98532.72;7400207;19;20077;-69
2024/01/03 07:14:59;;;;;;;2.17;0.63;;;;;;;8.10;100.00;98536.97;7397152;19;20094;-69
2024/01/03 07:17:27;;;;;;;1.88;0.50;;;;;;;8.12;100.00;98541.19;7398683;19;20044;-68
2024/01/03 07:19:56;;;;;;;3.20;0.60;;;;;;;8.14;100.00;98538.53;7397312;19;20018;-69
2024/01/03 07:22:24;;;;;;;2.40;0.80;;;;;;;8.15;100.00;98543.69;7398558;19;20017;-67
2024/01/03 07:24:52;;;;;;;3.00;0.95;;;;;;;8.18;100.00;98540.06;7396990;19;20036;-68
2024/01/03 07:27:23;;;;;;;3.40;0.98;;;;;;;8.17;100.00;98533.16;7399455;19;20074;-69
2024/01/03 07:29:53;;;;;;;2.35;0.70;;;;;;;8.22;100.00;98538.16;7397263;19;20115;-69
2024/01/03 07:32:22;;;;;;;2.05;0.57;;;;;;;8.23;100.00;98547.72;7399051;19;20378;-69
2024/01/03 07:34:50;;;;;;;1.60;0.50;;;;;;;8.24;99.79;98552.00;7396526;19;20018;-68
2024/01/03 07:37:18;;;;;;;4.18;0.50;;;;;;;8.27;100.00;98547.47;7398740;19;20438;-68
2024/01/03 07:39:47;;;;;;;1.80;0.50;;;;;;;8.30;100.00;98551.69;7399086;19;20094;-68
2024/01/03 07:42:15;;;;;;;2.65;0.65;;;;;;;8.34;100.00;98549.78;7398561;19;20014;-69
2024/01/03 07:44:46;;;;;;;2.17;0.70;;;;;;;8.34;100.00;98555.88;7396548;19;20111;-70
2024/01/03 07:47:15;;;;;;;2.60;0.70;;;;;;;8.38;100.00;98551.31;7399238;19;20031;-69
2024/01/03 07:49:44;;;;;;;6.43;0.80;;;;;;;8.39;100.00;98547.81;7398021;19;20010;-69
2024/01/03 07:52:12;;;;;;;2.67;0.68;;;;;;;8.41;100.00;98551.19;7398433;19;20006;-69
2024/01/03 07:54:41;;;;;;;5.15;0.80;;;;;;;8.42;100.00;98548.50;7396755;19;20010;-70
2024/01/03 07:57:09;;;;;;;3.17;0.77;;;;;;;8.45;100.00;98544.91;7398224;19;20073;-69
2024/01/03 07:59:40;;;;;;;4.70;0.70;;;;;;;8.46;100.00;98539.63;7398396;19;20011;-69
2024/01/03 08:02:11;;;;;;;3.28;0.60;;;;;;;8.48;100.00;98539.56;7395718;19;20430;-69
2024/01/03 08:04:40;;;;;;;2.13;0.52;;;;;;;8.51;100.00;98534.19;7395138;19;20537;-69
2024/01/03 08:07:08;;;;;;;2.92;1.77;;;;;;;8.53;100.00;98540.19;7397996;19;20010;-69
2024/01/03 08:09:37;;;;;;;2.30;0.98;;;;;;;8.55;100.00;98554.00;7398097;19;20011;-69
2024/01/03 08:12:08;;;;;;;3.40;0.68;;;;;;;8.57;100.00;98552.19;7398029;19;20022;-70
2024/01/03 08:14:37;;;;;;;3.08;0.57;;;;;;;8.60;100.00;98556.41;7396322;19;20099;-70
2024/01/03 08:17:06;;;;;;;1.65;0.70;;;;;;;8.62;100.00;98560.66;7396406;19;20038;-70
2024/01/03 08:19:39;;;;;;;2.17;0.75;;;;;;;8.63;100.00;98554.50;7397799;19;20087;-69
2024/01/03 08:22:07;;;;;;;2.78;0.60;;;;;;;8.68;100.00;98558.66;7396829;19;20018;-69
2024/01/03 08:24:36;;;;;;;1.38;0.60;;;;;;;8.70;100.00;98562.03;7395211;19;20070;-70
2024/01/03 08:27:05;;;;;;;4.68;0.60;;;;;;;8.73;100.00;98557.53;7396889;19;20070;-69
2024/01/03 08:29:34;;;;;;;2.15;0.50;;;;;;;8.74;99.79;98556.56;7396977;19;20024;-70
2024/01/03 08:32:02;;;;;;;4.45;0.73;;;;;;;8.78;100.00;98565.97;7398349;19;20026;-69
2024/01/03 08:34:31;;;;;;;2.63;0.60;;;;;;;8.82;100.00;98558.84;7394783;19;20023;-69
2024/01/03 08:37:02;;;;;;;3.35;0.80;;;;;;;8.83;100.00;98560.50;7396455;19;20422;-69
2024/01/03 08:39:30;;;;;;;1.95;0.80;;;;;;;8.86;100.00;98562.97;7396361;19;20499;-68
2024/01/03 08:41:59;;;;;;;4.18;0.80;;;;;;;8.90;100.00;98564.50;7396795;19;20078;-69
2024/01/03 08:44:27;;;;;;;1.23;0.50;;;;;;;8.93;100.00;98563.50;7395199;19;20078;-69
2024/01/03 08:46:55;;;;;;;3.22;0.70;;;;;;;8.96;100.00;98569.44;7396892;19;20011;-68
2024/01/03 08:49:24;;;;;;;4.35;1.02;;;;;;;9.01;100.00;98573.59;7396539;19;20010;-68
2024/01/03 08:51:52;;;;;;;2.80;0.57;;;;;;;9.03;100.00;98571.75;7396476;19;20073;-68
2024/01/03 08:54:30;;;;;;;3.40;0.70;;;;;;;9.06;100.00;98568.97;7394621;19;20027;-68
2024/01/03 08:56:59;;;;;;;4.78;1.10;;;;;;;9.09;99.11;98571.44;7396735;19;20094;-68
2024/01/03 08:59:27;;;;;;;3.55;0.75;;;;;;;9.11;100.00;98573.06;7396427;19;20086;-69
2024/01/03 09:01:57;;;;;;;4.30;0.93;;;;;;;9.13;99.72;98567.75;7395782;19;20074;-69
2024/01/03 09:04:26;;;;;;;4.00;1.17;;;;;;;9.16;100.00;98564.97;7394897;19;20022;-69
2024/01/03 09:06:55;;;;;;;5.88;2.05;;;;;;;9.20;100.00;98573.50;7396824;19;20010;-69
2024/01/03 09:09:26;;;;;;;9.63;3.42;;;;;;;9.22;99.23;98569.88;7396161;19;20014;-69
2024/01/03 09:11:55;;;;;;;5.43;1.30;;;;;;;9.25;95.81;98561.91;7394515;19;20077;-69
2024/01/03 09:14:23;;;;;;;1.92;0.82;;;;;;;9.31;99.15;98571.19;7393770;19;20087;-69
2024/01/03 09:16:52;;;;;;;6.15;0.93;;;;;;;9.35;100.00;98580.59;7393455;19;20031;-69
2024/01/03 09:19:20;;;;;;;3.47;0.77;;;;;;;9.38;97.72;98571.75;7396238;19;20017;-69
2024/01/03 09:21:49;;;;;;;2.95;1.27;;;;;;;9.43;95.79;98574.97;7396196;19;20070;-68
2024/01/03 09:24:17;;;;;;;3.78;0.70;;;;;;;9.47;97.04;98589.56;7393253;19;20077;-68
2024/01/03 09:26:49;;;;;;;4.25;0.73;;;;;;;9.52;97.60;98576.25;7395304;19;20031;-70
2024/01/03 09:29:18;;;;;;;1.50;0.70;;;;;;;9.56;95.29;98578.59;7395397;19;20026;-69
2024/01/03 09:31:47;;;;;;;2.15;0.80;;;;;;;9.61;97.21;98587.06;7395062;19;20078;-69
2024/01/03 09:34:15;;;;;;;1.50;0.80;;;;;;;9.64;96.28;98595.69;7392611;19;20503;-68
2024/01/03 09:36:44;;;;;;;2.15;0.80;;;;;;;9.67;96.95;98591.16;7395269;19;20419;-68
2024/01/03 09:39:12;;;;;;;5.18;0.80;;;;;;;9.69;95.82;98591.94;7395365;19;20018;-69
2024/01/03 09:41:41;;;;;;;3.88;0.88;;;;;;;9.70;98.69;98590.97;7394446;19;20359;-69
2024/01/03 09:44:13;;;;;;;4.07;0.70;;;;;;;9.69;94.18;98591.94;7393713;19;20011;-69
2024/01/03 09:46:42;;;;;;;2.63;0.70;;;;;;;9.72;96.82;98576.03;7395176;19;20411;-69
2024/01/03 09:49:11;;;;;;;2.95;0.80;;;;;;;9.74;97.27;98586.44;7394450;19;20014;-69
2024/01/03 09:51:40;;;;;;;1.77;0.75;;;;;;;9.79;96.73;98573.94;7394883;19;20023;-69
2024/01/03 09:54:10;;;;;;;3.13;0.63;;;;;;;9.83;97.04;98582.47;7392985;19;20414;-68
2024/01/03 09:56:40;;;;;;;2.67;0.80;;;;;;;9.85;94.85;98583.25;7395025;19;20035;-68
2024/01/03 09:59:11;;;;;;;2.22;0.70;;;;;;;9.88;96.53;98576.09;7394866;19;20386;-68
2024/01/03 10:01:40;;;;;;;2.83;0.57;;;;;;;9.87;94.16;98592.72;7393922;19;20499;-68
2024/01/03 10:04:08;;;;;;;4.60;0.70;;;;;;;9.87;98.32;98589.25;7392414;19;20010;-68
2024/01/03 10:06:53;;;;;;;3.03;0.55;;;;;;;9.87;93.28;98581.38;7394626;19;20078;-68
2024/01/03 10:09:22;;;;;;;3.08;0.70;;;;;;;9.88;97.39;98583.94;7392276;19;20025;-69
2024/01/03 10:11:53;;;;;;;2.85;0.80;;;;;;;9.88;94.35;98581.31;7393864;19;20019;-70
2024/01/03 10:14:24;;;;;;;5.10;0.82;;;;;;;9.87;92.38;98597.09;7391672;19;20014;-70
2024/01/03 10:16:53;;;;;;;6.18;1.13;;;;;;;9.92;96.45;98592.47;7393043;19;20095;-70
2024/01/03 10:19:31;;;;;;;3.90;1.00;;;;;;;9.93;93.40;98587.16;7392301;19;20022;-69
2024/01/03 10:22:01;;;;;;;4.22;1.13;;;;;;;9.96;96.95;98591.38;7393945;19;20007;-68
2024/01/03 10:24:31;;;;;;;3.35;1.33;;;;;;;9.97;95.66;98586.97;7391779;19;20010;-67
2024/01/03 10:27:10;;;;;;;1.27;0.60;;;;;;;10.00;96.79;98581.59;7393790;19;20041;-67
2024/01/03 10:29:42;;;;;;;2.10;1.05;;;;;;;10.00;97.25;98585.03;7401745;19;20011;-67
2024/01/03 10:32:12;;;;;;;4.93;1.13;;;;;;;10.00;95.71;98587.66;7402179;19;20070;-68
2024/01/03 10:34:40;;;;;;;4.03;0.88;;;;;;;10.02;97.14;98577.09;7398208;19;20023;-68
2024/01/03 10:37:09;;;;;;;3.42;0.60;;;;;;;10.02;98.21;98575.34;7400702;19;20019;-70
2024/01/03 10:39:39;;;;;;;3.08;0.93;;;;;;;10.04;97.50;98580.50;7401319;19;20051;-69
2024/01/03 10:42:08;;;;;;;3.85;1.00;;;;;;;10.01;92.11;98578.88;7400766;19;20074;-68
2024/01/03 10:44:38;;;;;;;5.03;1.38;;;;;;;10.04;95.34;98572.63;7397753;19;20082;-69
2024/01/03 10:47:09;;;;;;;3.88;0.90;;;;;;;10.07;96.42;98570.69;7400716;19;20078;-69
2024/01/03 10:49:38;;;;;;;4.03;0.85;;;;;;;10.11;98.18;98577.44;7400405;19;20015;-69
2024/01/03 10:52:10;;;;;;;3.33;0.70;;;;;;;10.15;97.07;98574.66;7400483;19;20031;-69
2024/01/03 10:54:44;;;;;;;5.15;1.00;;;;;;;10.21;94.82;98569.94;7397908;19;20081;-71
2024/01/03 10:57:17;;;;;;;5.25;1.20;;;;;;;10.26;94.86;98570.53;7401598;19;20030;-70
2024/01/03 10:59:54;;;;;;;5.30;1.15;;;;;;;10.35;91.82;98570.94;7397654;19;20452;-70
2024/01/03 11:02:33;;;;;;;5.85;1.50;;;;;;;10.40;94.31;98567.16;7397824;19;20082;-69
2024/01/03 11:05:07;;;;;;;3.55;0.80;;;;;;;10.45;93.28;98582.66;7399913;19;20087;-69
2024/01/03 11:07:42;;;;;;;2.90;0.93;;;;;;;10.47;92.85;98564.22;7401610;19;20010;-71
2024/01/03 11:10:11;;;;;;;6.80;1.17;;;;;;;10.48;95.78;98556.25;7398911;19;20033;-68
2024/01/03 11:12:39;;;;;;;3.17;1.10;;;;;;;10.49;96.32;98563.19;7399439;19;20014;-70
2024/01/03 11:15:26;;;;;;;6.13;0.95;;;;;;;10.48;92.47;98553.63;7398921;19;20086;-70
2024/01/03 11:17:57;;;;;;;7.63;1.05;;;;;;;10.47;96.63;98554.56;7397751;19;20495;-70
2024/01/03 11:20:30;;;;;;;6.32;1.27;;;;;;;10.44;91.70;98562.59;7396456;19;20022;-70
2024/01/03 11:23:01;;;;;;;4.93;1.35;;;;;;;10.43;91.76;98548.63;7398863;19;20021;-69
2024/01/03 11:25:53;;;;;;;3.33;0.80;;;;;;;10.43;91.01;98543.38;7397518;19;20139;-69
2024/01/03 11:28:36;;;;;;;3.53;0.90;;;;;;;10.44;92.34;98539.00;7397637;19;20017;-71
2024/01/03 11:31:06;;;;;;;3.60;0.88;;;;;;;10.45;96.95;98529.34;7399394;19;20013;-69
2024/01/03 11:33:41;;;;;;;6.97;1.38;;;;;;;10.47;95.65;98527.50;7398177;19;20014;-69
2024/01/03 11:36:16;;;;;;;4.65;2.13;;;;;;;10.48;95.54;98519.53;7399048;19;20018;-68
2024/01/03 11:38:46;;;;;;;2.05;1.20;;;;;;;10.53;96.75;98521.91;7397744;19;20093;-74
2024/01/03 11:41:18;;;;;;;5.80;1.45;;;;;;;10.55;95.18;98520.03;7398277;19;20011;-69
2024/01/03 11:43:46;;;;;;;6.25;1.73;;;;;;;10.61;95.09;98526.72;7394905;19;20021;-67
2024/01/03 11:46:15;;;;;;;6.72;1.55;;;;;;;10.60;93.37;98518.00;7398883;19;20063;-67
2024/01/03 11:48:46;;;;;;;7.45;1.05;;;;;;;10.61;94.54;98522.31;7398518;19;20018;-67